Terminal Aerodrome Forecast
Issued by NWS

Home | Current Version | Previous Version | Text Only | Print | Product List | Glossary On
Versions: 1 2 3 4 5 6 7 8 9 10 11 12 13 14 15 16 17 18 19 20 21 22 23 24 25 26 27 28 29 30
000
FTUS42 KCAE 012037 AAA
TAFCUB
TAF AMD
KCUB 012037Z 0121/0218 23008KT P6SM VCSH SCT035 BKN050
      TEMPO 0121/0122 4SM -TSRA BKN035CB
     FM020000 19004KT P6SM SCT070 BKN150
     FM020800 22003KT P6SM BKN015
     FM021500 23008KT P6SM SCT025 BKN050=

USA.gov is the U.S. government's official web portal to all federal, state and local government web resources and services.